createdAt,value
2023-12-09T00:01:10.722Z,18.20
2023-12-09T00:04:08.652Z,19.90
2023-12-09T00:07:06.353Z,18.70
2023-12-09T00:10:04.051Z,19.20
2023-12-09T00:13:01.454Z,19.90
2023-12-09T00:15:59.191Z,20.70
2023-12-09T00:18:57.531Z,17.80
2023-12-09T00:21:55.372Z,19.00
2023-12-09T00:24:53.447Z,18.80
2023-12-09T00:27:51.173Z,21.00
2023-12-09T00:30:48.574Z,19.80
2023-12-09T00:33:46.381Z,19.50
2023-12-09T00:36:43.966Z,19.90
2023-12-09T00:39:41.642Z,18.30
2023-12-09T00:42:39.104Z,18.30
2023-12-09T00:45:36.825Z,18.30
2023-12-09T00:48:34.637Z,19.60
2023-12-09T00:51:32.694Z,19.60
2023-12-09T00:54:30.595Z,18.30
2023-12-09T00:57:28.408Z,20.10
2023-12-09T01:00:27.193Z,18.90
2023-12-09T01:03:25.484Z,20.30
2023-12-09T01:06:22.986Z,18.60
2023-12-09T01:09:20.600Z,20.40
2023-12-09T01:12:18.121Z,19.40
2023-12-09T01:15:16.115Z,20.20
2023-12-09T01:18:13.943Z,19.60
2023-12-09T01:21:11.781Z,18.60
2023-12-09T01:24:09.462Z,18.60
2023-12-09T01:27:07.274Z,18.30
2023-12-09T01:30:05.732Z,17.30
2023-12-09T01:33:03.436Z,16.20
2023-12-09T01:36:01.811Z,18.40
2023-12-09T01:38:59.264Z,20.20
2023-12-09T01:41:57.650Z,19.60
2023-12-09T01:44:55.451Z,18.20
2023-12-09T01:47:53.330Z,18.00
2023-12-09T01:50:51.112Z,17.00
2023-12-09T01:53:48.532Z,17.90
2023-12-09T01:56:46.413Z,16.10
2023-12-09T01:59:43.841Z,16.90
2023-12-09T02:02:41.425Z,19.10
2023-12-09T02:05:38.864Z,15.70
2023-12-09T02:08:36.487Z,15.90
2023-12-09T02:11:34.130Z,16.40
2023-12-09T02:14:32.143Z,17.40
2023-12-09T02:17:29.565Z,17.70
2023-12-09T02:20:28.063Z,17.60
2023-12-09T02:23:25.537Z,16.30
2023-12-09T02:26:23.212Z,17.60
2023-12-09T02:29:20.583Z,16.60
2023-12-09T02:32:18.235Z,16.50
2023-12-09T02:35:15.772Z,17.50
2023-12-09T02:38:13.664Z,16.40
2023-12-09T02:41:11.318Z,18.00
2023-12-09T02:44:08.690Z,16.40
2023-12-09T02:47:06.528Z,16.60
2023-12-09T02:50:04.077Z,14.80
2023-12-09T02:53:01.694Z,17.10
2023-12-09T02:55:59.109Z,16.20
2023-12-09T02:58:56.950Z,16.00
2023-12-09T03:01:54.345Z,16.50
2023-12-09T03:04:51.906Z,17.90
2023-12-09T03:07:49.290Z,15.60
2023-12-09T03:10:46.945Z,16.10
2023-12-09T03:13:44.323Z,17.10
2023-12-09T03:16:41.963Z,16.60
2023-12-09T03:19:39.501Z,16.30
2023-12-09T03:22:37.250Z,16.50
2023-12-09T03:25:34.653Z,15.80
2023-12-09T03:28:32.426Z,17.20
2023-12-09T03:31:29.797Z,16.20
2023-12-09T03:34:27.743Z,16.20
2023-12-09T03:37:25.294Z,15.10
2023-12-09T03:40:23.046Z,16.20
2023-12-09T03:43:20.523Z,16.40
2023-12-09T03:46:18.251Z,16.40
2023-12-09T03:49:15.803Z,15.30
2023-12-09T03:52:15.291Z,16.20
2023-12-09T03:55:14.735Z,16.80
2023-12-09T03:58:12.702Z,17.60
2023-12-09T04:01:10.394Z,16.30
2023-12-09T04:04:08.048Z,17.40
2023-12-09T04:07:05.476Z,17.30
2023-12-09T04:10:03.021Z,16.40
2023-12-09T04:13:00.399Z,18.40
2023-12-09T04:15:58.138Z,17.20
2023-12-09T04:18:55.656Z,14.90
2023-12-09T04:21:54.253Z,17.60
2023-12-09T04:24:51.656Z,17.00
2023-12-09T04:27:49.425Z,18.40
2023-12-09T04:30:47.188Z,16.60
2023-12-09T04:33:45.845Z,17.70
2023-12-09T04:36:43.307Z,17.40
2023-12-09T04:39:41.057Z,17.60
2023-12-09T04:42:39.184Z,17.60
2023-12-09T04:45:37.038Z,19.00
2023-12-09T04:48:34.597Z,17.60
2023-12-09T04:51:32.538Z,17.30
2023-12-09T04:54:30.806Z,18.20
2023-12-09T04:57:28.791Z,19.90
2023-12-09T05:00:27.213Z,17.80
2023-12-09T05:03:24.735Z,19.00
2023-12-09T05:06:22.708Z,18.70
2023-12-09T05:09:20.203Z,18.50
2023-12-09T05:12:18.072Z,18.70
2023-12-09T05:15:15.575Z,19.80
2023-12-09T05:18:13.421Z,18.10
2023-12-09T05:21:11.166Z,18.30
2023-12-09T05:24:09.281Z,18.30
2023-12-09T05:27:06.929Z,17.50
2023-12-09T05:30:04.626Z,17.90
2023-12-09T05:33:02.093Z,18.50
2023-12-09T05:36:00.507Z,18.30
2023-12-09T05:38:57.957Z,18.90
2023-12-09T05:41:55.694Z,18.10
2023-12-09T05:44:53.176Z,18.70
2023-12-09T05:47:50.837Z,19.80
2023-12-09T05:50:48.433Z,18.10
2023-12-09T05:53:46.306Z,19.90
2023-12-09T05:56:43.959Z,19.00
2023-12-09T05:59:41.437Z,18.70
2023-12-09T06:02:39.201Z,20.00
2023-12-09T06:05:36.656Z,19.40
2023-12-09T06:08:35.105Z,20.30
2023-12-09T06:11:32.520Z,19.60
2023-12-09T06:14:30.089Z,18.10
2023-12-09T06:17:27.616Z,19.90
2023-12-09T06:20:25.390Z,17.20
2023-12-09T06:23:23.073Z,17.40
2023-12-09T06:26:20.454Z,18.90
2023-12-09T06:29:18.108Z,19.20
2023-12-09T06:32:15.523Z,18.30
2023-12-09T06:35:13.271Z,18.00
2023-12-09T06:38:10.764Z,17.80
2023-12-09T06:41:08.458Z,17.40
2023-12-09T06:44:05.847Z,16.90
2023-12-09T06:47:03.586Z,18.00
2023-12-09T06:50:00.993Z,20.40
2023-12-09T06:52:58.683Z,22.90
2023-12-09T06:55:56.045Z,49.10
2023-12-09T06:58:53.889Z,30.50
2023-12-09T07:01:51.595Z,27.40
2023-12-09T07:04:49.360Z,21.00
2023-12-09T07:07:47.425Z,20.90
2023-12-09T07:10:45.002Z,21.60
2023-12-09T07:13:42.587Z,21.50
2023-12-09T07:16:40.164Z,18.00
2023-12-09T07:19:37.600Z,17.30
2023-12-09T07:22:35.284Z,17.80
2023-12-09T07:25:32.656Z,16.40
2023-12-09T07:28:30.685Z,17.00
2023-12-09T07:31:28.471Z,17.20
2023-12-09T07:34:25.977Z,17.20
2023-12-09T07:37:23.672Z,15.10
2023-12-09T07:40:21.234Z,15.50
2023-12-09T07:43:18.990Z,15.80
2023-12-09T07:46:16.682Z,17.20
2023-12-09T07:49:14.336Z,13.00
2023-12-09T07:52:12.193Z,15.30
2023-12-09T07:55:10.094Z,17.40
2023-12-09T07:58:07.701Z,19.40
2023-12-09T08:01:07.987Z,15.70
2023-12-09T08:04:07.598Z,14.60
2023-12-09T08:07:05.345Z,13.40
2023-12-09T08:10:02.906Z,12.90
2023-12-09T08:13:00.495Z,12.20
2023-12-09T08:15:57.910Z,13.90
2023-12-09T08:18:55.760Z,13.20
2023-12-09T08:21:53.359Z,13.10
2023-12-09T08:24:51.118Z,13.00
2023-12-09T08:27:48.578Z,14.60
2023-12-09T08:30:48.307Z,13.00
2023-12-09T08:33:45.860Z,14.50
2023-12-09T08:36:43.742Z,14.80
2023-12-09T08:39:41.194Z,14.30
2023-12-09T08:42:39.633Z,14.40
2023-12-09T08:45:38.016Z,15.10
2023-12-09T08:48:35.937Z,14.10
2023-12-09T08:51:33.636Z,14.90
2023-12-09T08:54:31.591Z,15.60
2023-12-09T08:57:29.038Z,13.30
2023-12-09T09:00:28.233Z,12.90
2023-12-09T09:03:26.951Z,13.50
2023-12-09T09:06:24.651Z,14.10
2023-12-09T09:09:22.151Z,14.30
2023-12-09T09:12:19.931Z,11.90
2023-12-09T09:15:17.426Z,12.50
2023-12-09T09:18:15.296Z,12.60
2023-12-09T09:21:12.838Z,13.90
2023-12-09T09:24:10.497Z,15.10
2023-12-09T09:27:07.929Z,14.30
2023-12-09T09:30:05.823Z,13.50
2023-12-09T09:33:03.520Z,14.70
2023-12-09T09:36:01.572Z,15.30
2023-12-09T09:38:58.997Z,13.80
2023-12-09T09:41:57.501Z,16.60
2023-12-09T09:44:54.920Z,14.30
2023-12-09T09:47:52.716Z,14.90
2023-12-09T09:50:50.114Z,14.80
2023-12-09T09:53:47.790Z,14.70
2023-12-09T09:56:45.179Z,14.50
2023-12-09T09:59:42.950Z,13.80
2023-12-09T10:02:40.348Z,14.90
2023-12-09T10:05:38.541Z,15.60
2023-12-09T10:08:36.749Z,17.30
2023-12-09T10:11:34.142Z,15.00
2023-12-09T10:14:32.415Z,15.30
2023-12-09T10:17:29.860Z,14.70
2023-12-09T10:20:29.150Z,11.80
2023-12-09T10:23:26.577Z,13.00
2023-12-09T10:26:24.309Z,14.00
2023-12-09T10:29:21.702Z,13.00
2023-12-09T10:32:19.406Z,13.50
2023-12-09T10:35:16.804Z,12.60
2023-12-09T10:38:14.532Z,13.80
2023-12-09T10:41:11.930Z,13.40
2023-12-09T10:44:09.606Z,13.80
2023-12-09T10:47:07.659Z,12.50
2023-12-09T10:50:05.208Z,12.60
2023-12-09T10:53:02.863Z,12.10
2023-12-09T10:56:00.249Z,13.30
2023-12-09T10:58:57.869Z,13.30
2023-12-09T11:01:55.293Z,12.80
2023-12-09T11:04:53.353Z,13.40
2023-12-09T11:07:51.009Z,13.10
2023-12-09T11:10:49.607Z,14.10
2023-12-09T11:13:49.058Z,13.60
2023-12-09T11:16:47.491Z,12.50
2023-12-09T11:19:45.775Z,11.20
2023-12-09T11:22:43.436Z,12.50
2023-12-09T11:25:41.272Z,12.50
2023-12-09T11:28:38.717Z,13.30
2023-12-09T11:31:36.364Z,13.70
2023-12-09T11:34:34.379Z,12.70
2023-12-09T11:37:32.238Z,11.20
2023-12-09T11:40:29.641Z,11.30
2023-12-09T11:43:27.375Z,12.70
2023-12-09T11:46:25.652Z,11.40
2023-12-09T11:49:23.552Z,11.00
2023-12-09T11:52:21.266Z,11.70
2023-12-09T11:55:19.019Z,11.30
2023-12-09T11:58:16.438Z,10.10
2023-12-09T12:01:14.122Z,10.50
2023-12-09T12:04:11.998Z,10.60
2023-12-09T12:07:09.766Z,10.10
2023-12-09T12:10:07.203Z,10.20
2023-12-09T12:13:04.801Z,9.00
2023-12-09T12:16:02.449Z,9.90
2023-12-09T12:19:00.080Z,9.10
2023-12-09T12:21:57.607Z,10.10
2023-12-09T12:24:55.219Z,9.30
2023-12-09T12:27:52.937Z,9.20
2023-12-09T12:30:50.806Z,8.80
2023-12-09T12:33:48.688Z,9.60
2023-12-09T12:36:46.444Z,8.50
2023-12-09T12:39:44.197Z,8.60
2023-12-09T12:42:41.925Z,8.50
2023-12-09T12:45:40.834Z,9.50
2023-12-09T12:48:38.790Z,7.60
2023-12-09T12:51:36.632Z,8.40
2023-12-09T12:54:34.597Z,7.70
2023-12-09T12:57:32.753Z,8.70
2023-12-09T13:00:32.026Z,9.10
2023-12-09T13:03:30.564Z,8.90
2023-12-09T13:09:26.660Z,9.00
2023-12-09T13:12:24.764Z,9.80
2023-12-09T13:15:22.946Z,9.60
2023-12-09T13:18:22.543Z,9.50
2023-12-09T13:21:20.713Z,10.20
2023-12-09T13:24:18.212Z,9.80
2023-12-09T13:27:15.874Z,10.60
2023-12-09T13:30:14.732Z,10.90
2023-12-09T13:33:12.988Z,10.70
2023-12-09T13:36:13.975Z,10.10
2023-12-09T13:39:13.327Z,12.10
2023-12-09T13:42:13.772Z,11.30
2023-12-09T13:45:11.753Z,10.60
2023-12-09T13:48:10.363Z,10.60
2023-12-09T13:51:09.938Z,12.50
2023-12-09T13:54:07.400Z,11.70
2023-12-09T13:57:05.083Z,12.60
2023-12-09T14:00:09.308Z,11.30
2023-12-09T14:03:07.336Z,11.30
2023-12-09T14:06:05.033Z,11.90
2023-12-09T14:09:02.519Z,12.10
2023-12-09T14:12:00.239Z,12.60
2023-12-09T14:14:59.429Z,12.60
2023-12-09T14:17:57.061Z,13.40
2023-12-09T14:20:56.063Z,11.90
2023-12-09T14:23:53.937Z,12.20
2023-12-09T14:26:51.610Z,12.50
2023-12-09T14:29:49.028Z,13.40
2023-12-09T14:32:46.921Z,13.40
2023-12-09T14:35:44.503Z,13.30
2023-12-09T14:38:42.477Z,13.50
2023-12-09T14:41:41.607Z,13.10
2023-12-09T14:44:39.336Z,13.20
2023-12-09T14:47:36.973Z,13.10
2023-12-09T14:50:34.768Z,13.50
2023-12-09T14:53:32.520Z,12.80
2023-12-09T14:56:29.958Z,14.80
2023-12-09T14:59:27.649Z,14.30
2023-12-09T15:02:25.107Z,16.10
2023-12-09T15:05:22.878Z,15.10
2023-12-09T15:08:20.436Z,15.60
2023-12-09T15:11:18.052Z,13.40
2023-12-09T15:14:15.479Z,14.90
2023-12-09T15:17:13.182Z,13.80
2023-12-09T15:20:11.112Z,15.00
2023-12-09T15:23:08.970Z,14.30
2023-12-09T15:26:06.405Z,15.40
2023-12-09T15:29:04.591Z,15.90
2023-12-09T15:32:02.258Z,16.90
2023-12-09T15:34:59.719Z,14.90
2023-12-09T15:37:58.637Z,17.80
2023-12-09T15:40:56.294Z,16.00
2023-12-09T15:43:54.061Z,16.90
2023-12-09T15:46:51.590Z,15.90
2023-12-09T15:49:49.341Z,17.20
2023-12-09T15:52:47.322Z,14.20
2023-12-09T15:55:45.317Z,17.90
2023-12-09T15:58:43.094Z,16.80
2023-12-09T16:01:40.633Z,16.10
2023-12-09T16:04:39.238Z,17.10
2023-12-09T16:07:38.646Z,17.60
2023-12-09T16:10:36.385Z,19.40
2023-12-09T16:13:34.785Z,21.90
2023-12-09T16:16:32.533Z,36.00
2023-12-09T16:19:30.090Z,29.60
2023-12-09T16:22:28.223Z,26.70
2023-12-09T16:25:25.819Z,68.70
2023-12-09T16:28:23.543Z,33.40
2023-12-09T16:31:21.045Z,47.20
2023-12-09T16:34:18.975Z,39.60
2023-12-09T16:37:16.636Z,24.30
2023-12-09T16:40:15.106Z,32.30
2023-12-09T16:43:12.572Z,49.50
2023-12-09T16:46:10.885Z,60.00
2023-12-09T16:49:09.219Z,63.20
2023-12-09T16:52:07.211Z,37.70
2023-12-09T16:55:04.739Z,32.40
2023-12-09T16:58:02.530Z,24.80
2023-12-09T17:00:59.986Z,25.80
2023-12-09T17:03:57.850Z,21.60
2023-12-09T17:06:55.607Z,25.90
2023-12-09T17:09:53.561Z,28.80
2023-12-09T17:12:51.875Z,23.30
2023-12-09T17:15:49.674Z,24.90
2023-12-09T17:18:47.271Z,20.50
2023-12-09T17:21:45.038Z,24.40
2023-12-09T17:24:42.990Z,24.60
2023-12-09T17:27:40.906Z,22.00
2023-12-09T17:30:38.832Z,18.50
2023-12-09T17:33:36.780Z,21.00
2023-12-09T17:36:34.451Z,21.80
2023-12-09T17:39:32.233Z,19.80
2023-12-09T17:42:29.904Z,20.30
2023-12-09T17:45:28.733Z,20.80
2023-12-09T17:48:26.994Z,21.70
2023-12-09T17:51:24.981Z,19.70
2023-12-09T17:54:22.482Z,18.70
2023-12-09T17:57:20.500Z,19.80
2023-12-09T18:00:18.046Z,21.00
2023-12-09T18:03:15.798Z,17.40
2023-12-09T18:06:13.404Z,18.50
2023-12-09T18:09:11.130Z,18.60
2023-12-09T18:12:08.646Z,19.40
2023-12-09T18:15:06.375Z,19.30
2023-12-09T18:18:03.847Z,19.20
2023-12-09T18:21:01.460Z,19.90
2023-12-09T18:23:58.895Z,17.40
2023-12-09T18:26:56.692Z,18.70
2023-12-09T18:29:55.729Z,18.70
2023-12-09T18:32:53.850Z,17.00
2023-12-09T18:35:51.432Z,17.80
2023-12-09T18:38:49.301Z,17.80
2023-12-09T18:41:46.822Z,16.20
2023-12-09T18:44:44.610Z,17.20
2023-12-09T18:47:42.236Z,17.80
2023-12-09T18:50:40.238Z,17.70
2023-12-09T18:53:37.679Z,18.00
2023-12-09T18:56:37.038Z,15.50
2023-12-09T18:59:34.451Z,18.40
2023-12-09T19:02:33.673Z,17.80
2023-12-09T19:05:31.889Z,18.00
2023-12-09T19:08:29.635Z,17.30
2023-12-09T19:11:27.391Z,15.80
2023-12-09T19:14:24.813Z,17.60
2023-12-09T19:17:22.633Z,18.10
2023-12-09T19:20:20.042Z,18.00
2023-12-09T19:23:17.654Z,16.90
2023-12-09T19:26:15.520Z,19.40
2023-12-09T19:29:17.298Z,16.70
2023-12-09T19:32:15.980Z,17.00
2023-12-09T19:35:13.727Z,18.40
2023-12-09T19:38:11.150Z,16.20
2023-12-09T19:41:08.847Z,17.30
2023-12-09T19:44:06.290Z,16.00
2023-12-09T19:47:04.094Z,16.10
2023-12-09T19:50:01.637Z,17.20
2023-12-09T19:53:00.934Z,16.20
2023-12-09T19:55:58.732Z,17.40
2023-12-09T19:58:56.210Z,16.10
2023-12-09T20:01:53.896Z,17.50
2023-12-09T20:04:51.598Z,16.80
2023-12-09T20:07:49.365Z,14.80
2023-12-09T20:10:47.367Z,16.40
2023-12-09T20:13:45.782Z,16.80
2023-12-09T20:16:43.591Z,14.90
2023-12-09T20:19:41.154Z,14.40
2023-12-09T20:22:39.019Z,16.40
2023-12-09T20:25:36.529Z,16.00
2023-12-09T20:28:34.176Z,16.30
2023-12-09T20:31:31.881Z,13.80
2023-12-09T20:34:29.453Z,15.50
2023-12-09T20:37:27.371Z,14.70
2023-12-09T20:40:25.154Z,14.80
2023-12-09T20:43:22.970Z,14.70
2023-12-09T20:46:20.424Z,14.70
2023-12-09T20:49:19.020Z,13.80
2023-12-09T20:52:17.713Z,14.30
2023-12-09T20:55:15.375Z,14.70
2023-12-09T20:58:13.271Z,13.80
2023-12-09T21:01:10.799Z,14.60
2023-12-09T21:04:08.745Z,16.30
2023-12-09T21:07:06.392Z,14.20
2023-12-09T21:10:05.556Z,15.70
2023-12-09T21:13:03.168Z,15.00
2023-12-09T21:16:00.791Z,14.70
2023-12-09T21:18:59.379Z,14.40
2023-12-09T21:21:57.321Z,15.20
2023-12-09T21:24:54.797Z,14.90
2023-12-09T21:27:52.608Z,14.60
2023-12-09T21:30:50.289Z,13.10
2023-12-09T21:33:48.141Z,15.00
2023-12-09T21:36:46.388Z,14.90
2023-12-09T21:39:44.339Z,13.50
2023-12-09T21:42:41.813Z,14.20
2023-12-09T21:45:39.672Z,14.30
2023-12-09T21:48:37.576Z,14.50
2023-12-09T21:51:35.162Z,14.80
2023-12-09T21:54:32.909Z,16.70
2023-12-09T21:57:30.828Z,15.60
2023-12-09T22:00:28.319Z,15.50
2023-12-09T22:03:26.200Z,15.30
2023-12-09T22:06:23.909Z,15.20
2023-12-09T22:09:21.646Z,15.20
2023-12-09T22:12:19.138Z,13.70
2023-12-09T22:15:19.040Z,13.70
2023-12-09T22:18:16.613Z,13.00
2023-12-09T22:21:14.457Z,12.50
2023-12-09T22:24:11.976Z,11.30
2023-12-09T22:27:09.817Z,13.00
2023-12-09T22:30:07.448Z,14.00
2023-12-09T22:33:05.689Z,14.00
2023-12-09T22:36:03.478Z,11.60
2023-12-09T22:39:01.118Z,12.90
2023-12-09T22:41:58.888Z,12.80
2023-12-09T22:44:56.677Z,14.50
2023-12-09T22:47:54.251Z,12.70
2023-12-09T22:50:54.553Z,14.50
2023-12-09T22:53:52.700Z,14.10
2023-12-09T22:56:50.457Z,14.60
2023-12-09T22:59:47.863Z,12.90
2023-12-09T23:02:45.565Z,12.90
2023-12-09T23:05:43.007Z,13.30
2023-12-09T23:08:40.829Z,11.90
2023-12-09T23:11:38.494Z,12.30
2023-12-09T23:14:36.186Z,13.70
2023-12-09T23:17:33.660Z,12.70
2023-12-09T23:20:31.505Z,13.20
2023-12-09T23:23:28.914Z,13.50
2023-12-09T23:26:26.538Z,13.00
2023-12-09T23:29:23.970Z,13.50
2023-12-09T23:32:22.065Z,12.80
2023-12-09T23:35:19.693Z,13.00
2023-12-09T23:38:17.116Z,12.30
2023-12-09T23:41:14.753Z,12.70
2023-12-09T23:44:12.185Z,12.60
2023-12-09T23:47:10.133Z,13.40
2023-12-09T23:50:07.599Z,13.10
2023-12-09T23:53:05.233Z,10.90
2023-12-09T23:56:02.660Z,13.10
2023-12-09T23:59:00.337Z,12.20
